VJT569 LFMD-LEIB
Flight info
| Callsign | VJT569 |
|---|---|
| Flight time | 1h 8m |
| Altitude | 39000 |
| Route | TURIL DCT PADKO DCT VATIR DCT PIVUS DCT SULID DCT DIMIB DCT POS |
| Aircraft | CL60/M-SBDE1E2E3FGHIJ1J4J5J7M3RWXYZ/LB1V1D1 |
Departure
| Time | 2026-04-24 13:46 |
|---|---|
| Airport | Cannes Mandelieu Airport (LFMD) |
Arrival
| Time | 2026-04-24 14:55 |
|---|---|
| Airport | Ibiza Airport (LEIB) |
| Time | Latitude | Longitude | Altitude | Speed | Heading |
|---|---|---|---|---|---|
| 2026-04-24 13:12 | 43.54673 | 6.95340 | 24 ft | 0 kts | 173° |
| 2026-04-24 13:41 | 43.54668 | 6.95340 | 25 ft | 2 kts | 174° |
| 2026-04-24 13:41 | 43.54649 | 6.95338 | 25 ft | 2 kts | 217° |
| 2026-04-24 13:41 | 43.54641 | 6.95298 | 25 ft | 5 kts | 274° |
| 2026-04-24 13:42 | 43.54682 | 6.95274 | 25 ft | 9 kts | 353° |
| 2026-04-24 13:42 | 43.54758 | 6.95260 | 26 ft | 12 kts | 353° |
| 2026-04-24 13:42 | 43.54861 | 6.95242 | 27 ft | 16 kts | 353° |
| 2026-04-24 13:42 | 43.54941 | 6.95228 | 27 ft | 12 kts | 353° |
| 2026-04-24 13:43 | 43.55043 | 6.95210 | 28 ft | 16 kts | 353° |
| 2026-04-24 13:43 | 43.55172 | 6.95187 | 29 ft | 20 kts | 353° |
| 2026-04-24 13:43 | 43.55312 | 6.95164 | 30 ft | 12 kts | 353° |
| 2026-04-24 13:43 | 43.55403 | 6.95146 | 31 ft | 9 kts | 352° |
| 2026-04-24 13:44 | 43.55439 | 6.95097 | 30 ft | 6 kts | 264° |
| 2026-04-24 13:44 | 43.55438 | 6.95075 | 30 ft | 4 kts | 263° |
| 2026-04-24 13:44 | 43.55433 | 6.95028 | 30 ft | 4 kts | 262° |
| 2026-04-24 13:44 | 43.55419 | 6.94975 | 30 ft | 7 kts | 188° |
| 2026-04-24 13:45 | 43.55399 | 6.94977 | 30 ft | 0 kts | 172° |
| 2026-04-24 13:45 | 43.55062 | 6.95039 | 28 ft | 107 kts | 173° |
| 2026-04-24 13:46 | 43.54069 | 6.95219 | 412 ft | 166 kts | 172° |
| 2026-04-24 13:46 | 43.52947 | 6.95678 | 1299 ft | 166 kts | 160° |
| 2026-04-24 13:46 | 43.51930 | 6.96233 | 1661 ft | 154 kts | 159° |
| 2026-04-24 13:46 | 43.50923 | 6.96834 | 1815 ft | 157 kts | 158° |
| 2026-04-24 13:47 | 43.49844 | 6.97495 | 1899 ft | 178 kts | 156° |
| 2026-04-24 13:47 | 43.48847 | 6.98558 | 1937 ft | 182 kts | 133° |
| 2026-04-24 13:47 | 43.48008 | 6.99894 | 1973 ft | 185 kts | 132° |
| 2026-04-24 13:47 | 43.47102 | 7.01325 | 1969 ft | 212 kts | 132° |
| 2026-04-24 13:48 | 43.46111 | 7.02885 | 2001 ft | 221 kts | 133° |
| 2026-04-24 13:48 | 43.45085 | 7.04498 | 1988 ft | 225 kts | 133° |
| 2026-04-24 13:48 | 43.43889 | 7.05881 | 2039 ft | 219 kts | 160° |
| 2026-04-24 13:48 | 43.42396 | 7.06138 | 2635 ft | 222 kts | 181° |
| 2026-04-24 13:49 | 43.40796 | 7.06073 | 3596 ft | 246 kts | 182° |
| 2026-04-24 13:49 | 43.39039 | 7.05967 | 4824 ft | 263 kts | 183° |
| 2026-04-24 13:49 | 43.37219 | 7.05837 | 6241 ft | 272 kts | 182° |
| 2026-04-24 13:49 | 43.35309 | 7.05674 | 7626 ft | 282 kts | 183° |
| 2026-04-24 13:50 | 43.33368 | 7.05507 | 8995 ft | 290 kts | 183° |
| 2026-04-24 13:50 | 43.31358 | 7.05185 | 10379 ft | 298 kts | 193° |
| 2026-04-24 13:50 | 43.29415 | 7.04101 | 11372 ft | 319 kts | 211° |
| 2026-04-24 13:50 | 43.27752 | 7.01955 | 12357 ft | 337 kts | 236° |
| 2026-04-24 13:51 | 43.26894 | 6.98983 | 13508 ft | 346 kts | 259° |
| 2026-04-24 13:51 | 43.26478 | 6.95691 | 14561 ft | 356 kts | 261° |
| 2026-04-24 13:51 | 43.26059 | 6.92327 | 15689 ft | 363 kts | 261° |
| 2026-04-24 13:51 | 43.25627 | 6.88898 | 16773 ft | 370 kts | 261° |
| 2026-04-24 13:52 | 43.25183 | 6.85390 | 17830 ft | 376 kts | 261° |
| 2026-04-24 13:52 | 43.24732 | 6.81834 | 18851 ft | 381 kts | 261° |
| 2026-04-24 13:52 | 43.24274 | 6.78236 | 19763 ft | 388 kts | 261° |
| 2026-04-24 13:52 | 43.23805 | 6.74563 | 20661 ft | 395 kts | 261° |
| 2026-04-24 13:53 | 43.23323 | 6.70799 | 21533 ft | 401 kts | 260° |
| 2026-04-24 13:53 | 43.22827 | 6.66945 | 22411 ft | 407 kts | 260° |
| 2026-04-24 13:53 | 43.22332 | 6.63112 | 23223 ft | 413 kts | 260° |
| 2026-04-24 13:53 | 43.21957 | 6.59215 | 24013 ft | 418 kts | 268° |
| 2026-04-24 13:54 | 43.21994 | 6.55179 | 24850 ft | 422 kts | 272° |
| 2026-04-24 13:54 | 43.22063 | 6.51133 | 25644 ft | 426 kts | 272° |
| 2026-04-24 13:54 | 43.22126 | 6.47058 | 26428 ft | 429 kts | 272° |
| 2026-04-24 13:54 | 43.22188 | 6.42938 | 27166 ft | 432 kts | 272° |
| 2026-04-24 13:55 | 43.22246 | 6.38896 | 27829 ft | 435 kts | 272° |
| 2026-04-24 13:55 | 43.22304 | 6.34725 | 28464 ft | 439 kts | 271° |
| 2026-04-24 13:55 | 43.22360 | 6.30451 | 29080 ft | 443 kts | 271° |
| 2026-04-24 13:55 | 43.22414 | 6.26214 | 29665 ft | 446 kts | 271° |
| 2026-04-24 13:56 | 43.22467 | 6.21928 | 30234 ft | 449 kts | 271° |
| 2026-04-24 13:56 | 43.22519 | 6.17645 | 30732 ft | 453 kts | 271° |
| 2026-04-24 13:56 | 43.22568 | 6.13374 | 31192 ft | 457 kts | 271° |
| 2026-04-24 13:56 | 43.22617 | 6.08916 | 31657 ft | 460 kts | 271° |
| 2026-04-24 13:57 | 43.22663 | 6.04583 | 32236 ft | 459 kts | 271° |
| 2026-04-24 13:57 | 43.22708 | 6.00200 | 32897 ft | 456 kts | 271° |
| 2026-04-24 13:57 | 43.22737 | 5.95845 | 33519 ft | 453 kts | 269° |
| 2026-04-24 13:57 | 43.22520 | 5.91601 | 34104 ft | 450 kts | 262° |
| 2026-04-24 13:58 | 43.21940 | 5.87379 | 34703 ft | 448 kts | 256° |
| 2026-04-24 13:58 | 43.21019 | 5.83350 | 35269 ft | 446 kts | 249° |
| 2026-04-24 13:58 | 43.19754 | 5.79471 | 35822 ft | 444 kts | 242° |
| 2026-04-24 13:58 | 43.18162 | 5.75809 | 36322 ft | 443 kts | 235° |
| 2026-04-24 13:59 | 43.16322 | 5.72479 | 36777 ft | 442 kts | 230° |
| 2026-04-24 13:59 | 43.14349 | 5.69194 | 37198 ft | 442 kts | 230° |
| 2026-04-24 13:59 | 43.12392 | 5.65932 | 37598 ft | 442 kts | 230° |
| 2026-04-24 13:59 | 43.10451 | 5.62701 | 37974 ft | 442 kts | 230° |
| 2026-04-24 14:00 | 43.08569 | 5.59570 | 38310 ft | 442 kts | 231° |
| 2026-04-24 14:00 | 43.06617 | 5.56327 | 38645 ft | 442 kts | 231° |
| 2026-04-24 14:00 | 43.04651 | 5.53066 | 39003 ft | 441 kts | 231° |
| 2026-04-24 14:00 | 43.02687 | 5.49810 | 39124 ft | 446 kts | 231° |
| 2026-04-24 14:01 | 42.98658 | 5.43143 | 39126 ft | 458 kts | 231° |
| 2026-04-24 14:01 | 42.95252 | 5.37519 | 39124 ft | 466 kts | 231° |
| 2026-04-24 14:02 | 42.92222 | 5.32542 | 39118 ft | 472 kts | 230° |
| 2026-04-24 14:02 | 42.87981 | 5.25563 | 39122 ft | 480 kts | 230° |
| 2026-04-24 14:03 | 42.83675 | 5.18492 | 39132 ft | 483 kts | 230° |
| 2026-04-24 14:03 | 42.79358 | 5.11423 | 39133 ft | 483 kts | 230° |
| 2026-04-24 14:04 | 42.75078 | 5.04431 | 39131 ft | 481 kts | 230° |
| 2026-04-24 14:04 | 42.70791 | 4.97445 | 39135 ft | 481 kts | 231° |
| 2026-04-24 14:05 | 42.66462 | 4.90408 | 39134 ft | 481 kts | 231° |
| 2026-04-24 14:05 | 42.62177 | 4.83461 | 39137 ft | 481 kts | 231° |
| 2026-04-24 14:06 | 42.57840 | 4.76445 | 39128 ft | 482 kts | 231° |
| 2026-04-24 14:06 | 42.53533 | 4.69494 | 39122 ft | 482 kts | 231° |
| 2026-04-24 14:07 | 42.49206 | 4.62528 | 39124 ft | 481 kts | 231° |
| 2026-04-24 14:07 | 42.44885 | 4.55588 | 39115 ft | 480 kts | 231° |
| 2026-04-24 14:08 | 42.40944 | 4.49272 | 39114 ft | 480 kts | 231° |
| 2026-04-24 14:08 | 42.36628 | 4.42370 | 39116 ft | 480 kts | 231° |
| 2026-04-24 14:09 | 42.32315 | 4.35490 | 39113 ft | 480 kts | 232° |
| 2026-04-24 14:09 | 42.27979 | 4.28591 | 39118 ft | 478 kts | 231° |
| 2026-04-24 14:10 | 42.23698 | 4.21792 | 39121 ft | 478 kts | 231° |
| 2026-04-24 14:10 | 42.19352 | 4.15037 | 39116 ft | 479 kts | 227° |
| 2026-04-24 14:11 | 42.14118 | 4.09343 | 39120 ft | 482 kts | 213° |
| 2026-04-24 14:12 | 42.05271 | 4.02779 | 39122 ft | 482 kts | 210° |
| 2026-04-24 14:12 | 41.99366 | 3.98458 | 39126 ft | 482 kts | 210° |
| 2026-04-24 14:13 | 41.93492 | 3.94171 | 39132 ft | 481 kts | 210° |
| 2026-04-24 14:13 | 41.87494 | 3.90067 | 39127 ft | 481 kts | 208° |
| 2026-04-24 14:14 | 41.81538 | 3.86064 | 39122 ft | 480 kts | 208° |
| 2026-04-24 14:14 | 41.72550 | 3.80038 | 39123 ft | 481 kts | 208° |
| 2026-04-24 14:15 | 41.66526 | 3.76010 | 39123 ft | 481 kts | 208° |
| 2026-04-24 14:15 | 41.60558 | 3.72026 | 39119 ft | 480 kts | 208° |
| 2026-04-24 14:16 | 41.54527 | 3.68010 | 39119 ft | 479 kts | 208° |
| 2026-04-24 14:17 | 41.45528 | 3.62032 | 39117 ft | 479 kts | 208° |
| 2026-04-24 14:17 | 41.36766 | 3.56229 | 39116 ft | 478 kts | 208° |
| 2026-04-24 14:18 | 41.30792 | 3.52282 | 39112 ft | 478 kts | 208° |
| 2026-04-24 14:18 | 41.24801 | 3.48332 | 39114 ft | 477 kts | 208° |
| 2026-04-24 14:19 | 41.18791 | 3.44625 | 39116 ft | 477 kts | 201° |
| 2026-04-24 14:19 | 41.12309 | 3.42509 | 39114 ft | 479 kts | 193° |
| 2026-04-24 14:20 | 41.05722 | 3.40779 | 39120 ft | 479 kts | 193° |
| 2026-04-24 14:20 | 40.99134 | 3.39048 | 39119 ft | 479 kts | 193° |
| 2026-04-24 14:21 | 40.92522 | 3.37312 | 39118 ft | 479 kts | 193° |
| 2026-04-24 14:21 | 40.85950 | 3.35590 | 39118 ft | 478 kts | 193° |
| 2026-04-24 14:22 | 40.79433 | 3.33885 | 39118 ft | 477 kts | 192° |
| 2026-04-24 14:23 | 40.69762 | 3.31359 | 39115 ft | 476 kts | 192° |
| 2026-04-24 14:23 | 40.63174 | 3.29642 | 39116 ft | 476 kts | 192° |
| 2026-04-24 14:24 | 40.56627 | 3.27939 | 39114 ft | 475 kts | 192° |
| 2026-04-24 14:24 | 40.50426 | 3.26329 | 39112 ft | 475 kts | 192° |
| 2026-04-24 14:25 | 40.43884 | 3.24634 | 39116 ft | 474 kts | 192° |
| 2026-04-24 14:25 | 40.37317 | 3.22935 | 39112 ft | 473 kts | 192° |
| 2026-04-24 14:26 | 40.30828 | 3.21260 | 39110 ft | 473 kts | 192° |
| 2026-04-24 14:26 | 40.24309 | 3.19578 | 39111 ft | 473 kts | 192° |
| 2026-04-24 14:27 | 40.17833 | 3.17910 | 39108 ft | 471 kts | 192° |
| 2026-04-24 14:27 | 40.11372 | 3.16249 | 39110 ft | 470 kts | 192° |
| 2026-04-24 14:28 | 40.04913 | 3.14592 | 39108 ft | 470 kts | 192° |
| 2026-04-24 14:28 | 39.98431 | 3.12933 | 39110 ft | 470 kts | 192° |
| 2026-04-24 14:29 | 39.92074 | 3.10690 | 39112 ft | 468 kts | 204° |
| 2026-04-24 14:29 | 39.86269 | 3.06745 | 39110 ft | 466 kts | 210° |
| 2026-04-24 14:30 | 39.81869 | 3.03542 | 39111 ft | 465 kts | 210° |
| 2026-04-24 14:30 | 39.75206 | 2.98704 | 39110 ft | 465 kts | 210° |
| 2026-04-24 14:31 | 39.69510 | 2.94577 | 39117 ft | 465 kts | 210° |
| 2026-04-24 14:31 | 39.63841 | 2.90477 | 39123 ft | 466 kts | 210° |
| 2026-04-24 14:32 | 39.58138 | 2.86358 | 39120 ft | 465 kts | 210° |
| 2026-04-24 14:32 | 39.52423 | 2.82235 | 39114 ft | 465 kts | 210° |
| 2026-04-24 14:33 | 39.46768 | 2.78113 | 38590 ft | 459 kts | 213° |
| 2026-04-24 14:33 | 39.44165 | 2.75719 | 38019 ft | 450 kts | 220° |
| 2026-04-24 14:33 | 39.41889 | 2.73023 | 37460 ft | 442 kts | 227° |
| 2026-04-24 14:33 | 39.39875 | 2.70038 | 36892 ft | 436 kts | 232° |
| 2026-04-24 14:34 | 39.37945 | 2.66965 | 36319 ft | 434 kts | 232° |
| 2026-04-24 14:34 | 39.36023 | 2.63915 | 35752 ft | 435 kts | 231° |
| 2026-04-24 14:34 | 39.34122 | 2.60900 | 35172 ft | 437 kts | 231° |
| 2026-04-24 14:34 | 39.32175 | 2.57816 | 34585 ft | 438 kts | 231° |
| 2026-04-24 14:35 | 39.30249 | 2.54767 | 34022 ft | 440 kts | 231° |
| 2026-04-24 14:35 | 39.28285 | 2.51663 | 33400 ft | 441 kts | 232° |
| 2026-04-24 14:35 | 39.26325 | 2.48567 | 32819 ft | 442 kts | 232° |
| 2026-04-24 14:35 | 39.24374 | 2.45488 | 32234 ft | 443 kts | 232° |
| 2026-04-24 14:36 | 39.22393 | 2.42364 | 31618 ft | 444 kts | 232° |
| 2026-04-24 14:36 | 39.20422 | 2.39260 | 31034 ft | 444 kts | 232° |
| 2026-04-24 14:36 | 39.18459 | 2.36173 | 30434 ft | 444 kts | 232° |
| 2026-04-24 14:36 | 39.16465 | 2.33038 | 29843 ft | 445 kts | 232° |
| 2026-04-24 14:37 | 39.14539 | 2.30013 | 29261 ft | 446 kts | 232° |
| 2026-04-24 14:37 | 39.12575 | 2.26932 | 28604 ft | 445 kts | 232° |
| 2026-04-24 14:37 | 39.10648 | 2.23913 | 28098 ft | 441 kts | 232° |
| 2026-04-24 14:37 | 39.08789 | 2.20777 | 27406 ft | 438 kts | 239° |
| 2026-04-24 14:38 | 39.07429 | 2.17253 | 26592 ft | 433 kts | 246° |
| 2026-04-24 14:38 | 39.06172 | 2.13746 | 26062 ft | 425 kts | 245° |
| 2026-04-24 14:38 | 39.04909 | 2.10255 | 25484 ft | 423 kts | 245° |
| 2026-04-24 14:38 | 39.03665 | 2.06820 | 24923 ft | 419 kts | 245° |
| 2026-04-24 14:39 | 39.02416 | 2.03381 | 24360 ft | 414 kts | 245° |
| 2026-04-24 14:39 | 39.01196 | 2.00028 | 23809 ft | 408 kts | 245° |
| 2026-04-24 14:39 | 39.00006 | 1.96761 | 23276 ft | 402 kts | 245° |
| 2026-04-24 14:39 | 38.98817 | 1.93501 | 22726 ft | 396 kts | 245° |
| 2026-04-24 14:40 | 38.97654 | 1.90318 | 21936 ft | 394 kts | 245° |
| 2026-04-24 14:40 | 38.96486 | 1.87125 | 21055 ft | 394 kts | 245° |
| 2026-04-24 14:40 | 38.95321 | 1.83947 | 20176 ft | 394 kts | 244° |
| 2026-04-24 14:40 | 38.94163 | 1.80791 | 19299 ft | 393 kts | 244° |
| 2026-04-24 14:41 | 38.93002 | 1.77629 | 18475 ft | 390 kts | 244° |
| 2026-04-24 14:41 | 38.91855 | 1.74511 | 17928 ft | 380 kts | 244° |
| 2026-04-24 14:41 | 38.90730 | 1.71455 | 17392 ft | 371 kts | 244° |
| 2026-04-24 14:41 | 38.89641 | 1.68502 | 16900 ft | 362 kts | 244° |
| 2026-04-24 14:42 | 38.88555 | 1.65558 | 16409 ft | 354 kts | 243° |
| 2026-04-24 14:42 | 38.87509 | 1.62729 | 15949 ft | 347 kts | 243° |
| 2026-04-24 14:42 | 38.86489 | 1.59973 | 15503 ft | 340 kts | 244° |
| 2026-04-24 14:42 | 38.85475 | 1.57235 | 15038 ft | 335 kts | 244° |
| 2026-04-24 14:43 | 38.84473 | 1.54530 | 14590 ft | 330 kts | 243° |
| 2026-04-24 14:43 | 38.83489 | 1.51880 | 14159 ft | 325 kts | 243° |
| 2026-04-24 14:43 | 38.82518 | 1.49266 | 13727 ft | 321 kts | 243° |
| 2026-04-24 14:43 | 38.81542 | 1.46642 | 13301 ft | 317 kts | 243° |
| 2026-04-24 14:44 | 38.80591 | 1.44091 | 12875 ft | 313 kts | 243° |
| 2026-04-24 14:44 | 38.79570 | 1.41548 | 12457 ft | 310 kts | 241° |
| 2026-04-24 14:44 | 38.78562 | 1.39107 | 12030 ft | 308 kts | 241° |
| 2026-04-24 14:44 | 38.77574 | 1.36711 | 11602 ft | 301 kts | 241° |
| 2026-04-24 14:45 | 38.76599 | 1.34349 | 11229 ft | 294 kts | 240° |
| 2026-04-24 14:45 | 38.75638 | 1.32023 | 10852 ft | 288 kts | 241° |
| 2026-04-24 14:45 | 38.74703 | 1.29762 | 10449 ft | 282 kts | 241° |
| 2026-04-24 14:45 | 38.73822 | 1.27637 | 10116 ft | 276 kts | 241° |
| 2026-04-24 14:46 | 38.72990 | 1.25635 | 9764 ft | 273 kts | 241° |
| 2026-04-24 14:46 | 38.72100 | 1.23501 | 9399 ft | 269 kts | 241° |
| 2026-04-24 14:46 | 38.71211 | 1.21368 | 9039 ft | 264 kts | 241° |
| 2026-04-24 14:46 | 38.70359 | 1.19325 | 8702 ft | 259 kts | 241° |
| 2026-04-24 14:47 | 38.69506 | 1.17282 | 8358 ft | 256 kts | 241° |
| 2026-04-24 14:47 | 38.68656 | 1.15248 | 8011 ft | 257 kts | 241° |
| 2026-04-24 14:47 | 38.67813 | 1.13234 | 7665 ft | 256 kts | 240° |
| 2026-04-24 14:47 | 38.67068 | 1.11179 | 7295 ft | 257 kts | 255° |
| 2026-04-24 14:48 | 38.67137 | 1.08872 | 6643 ft | 268 kts | 291° |
| 2026-04-24 14:48 | 38.68265 | 1.06972 | 5894 ft | 277 kts | 326° |
| 2026-04-24 14:48 | 38.70086 | 1.06185 | 5108 ft | 279 kts | 1° |
| 2026-04-24 14:48 | 38.71938 | 1.06640 | 4790 ft | 260 kts | 19° |
| 2026-04-24 14:49 | 38.73636 | 1.07351 | 4487 ft | 253 kts | 22° |
| 2026-04-24 14:49 | 38.75112 | 1.08466 | 4155 ft | 243 kts | 46° |
| 2026-04-24 14:49 | 38.76068 | 1.10207 | 3825 ft | 235 kts | 63° |
| 2026-04-24 14:49 | 38.76813 | 1.12043 | 3493 ft | 232 kts | 63° |
| 2026-04-24 14:50 | 38.77557 | 1.13857 | 3284 ft | 222 kts | 63° |
| 2026-04-24 14:50 | 38.78251 | 1.15551 | 3191 ft | 203 kts | 63° |
| 2026-04-24 14:50 | 38.78883 | 1.17093 | 3102 ft | 184 kts | 63° |
| 2026-04-24 14:50 | 38.79462 | 1.18495 | 2950 ft | 183 kts | 63° |
| 2026-04-24 14:51 | 38.80048 | 1.19902 | 2718 ft | 181 kts | 63° |
| 2026-04-24 14:51 | 38.80643 | 1.21329 | 2476 ft | 179 kts | 62° |
| 2026-04-24 14:51 | 38.81229 | 1.22735 | 2242 ft | 178 kts | 62° |
| 2026-04-24 14:51 | 38.81811 | 1.24133 | 2010 ft | 177 kts | 62° |
| 2026-04-24 14:52 | 38.82397 | 1.25541 | 1777 ft | 176 kts | 62° |
| 2026-04-24 14:52 | 38.82964 | 1.26905 | 1520 ft | 165 kts | 63° |
| 2026-04-24 14:52 | 38.83465 | 1.28108 | 1355 ft | 142 kts | 63° |
| 2026-04-24 14:52 | 38.83928 | 1.29218 | 1159 ft | 138 kts | 64° |
| 2026-04-24 14:53 | 38.84366 | 1.30275 | 992 ft | 133 kts | 64° |
| 2026-04-24 14:53 | 38.84811 | 1.31347 | 844 ft | 131 kts | 64° |
| 2026-04-24 14:53 | 38.85219 | 1.32330 | 682 ft | 121 kts | 64° |
| 2026-04-24 14:53 | 38.85617 | 1.33277 | 475 ft | 122 kts | 63° |
| 2026-04-24 14:54 | 38.86029 | 1.34251 | 347 ft | 121 kts | 62° |
| 2026-04-24 14:54 | 38.86400 | 1.35182 | 184 ft | 111 kts | 62° |
| 2026-04-24 14:54 | 38.86780 | 1.36094 | 59 ft | 118 kts | 63° |
| 2026-04-24 14:54 | 38.87126 | 1.36937 | 20 ft | 92 kts | 63° |
| 2026-04-24 14:55 | 38.87285 | 1.37315 | 24 ft | 41 kts | 58° |
| 2026-04-24 14:55 | 38.87478 | 1.37518 | 29 ft | 11 kts | 30° |
| 2026-04-24 14:55 | 38.87522 | 1.37553 | 31 ft | 6 kts | 24° |
| 2026-04-24 14:55 | 38.87553 | 1.37525 | 33 ft | 8 kts | 270° |
| 2026-04-24 14:56 | 38.87537 | 1.37452 | 32 ft | 6 kts | 300° |
| 2026-04-24 14:56 | 38.87585 | 1.37419 | 35 ft | 8 kts | 331° |
| 2026-04-24 14:56 | 38.87614 | 1.37399 | 36 ft | 5 kts | 332° |
| 2026-04-24 14:56 | 38.87623 | 1.37393 | 37 ft | 0 kts | 332° |